< < Back
Terminal Aerodrome Forecast


Current Version              Previous Versions:   1  2  3  4  5  6  7  8  9  

Terminal Aerodrome Forecast

987
FTUS44 KBMX 191000 AAB
TAFMGM
TAF AMD
KMGM 191037Z 1911/2006 35011KT 3SM -SHRA BR BKN030 OVC080
     FM191300 01012G22KT P6SM OVC025
     FM191800 01012G22KT P6SM SCT040
     FM200000 03006KT P6SM SCT040=

Latest METAR

819
SAUS80 KWBC 200000 RRB
MTRMGM
METAR KMGM 192353Z 03005KT 10SM OVC055 21/12 A3008 RMK AO2 SLP185
T02110122 10239 20211 53012


USA.gov is the U.S. government's official web portal to all federal, state and local government web resources and services.